createdAt,value
2019-01-14T00:01:13.690Z,3.83
2019-01-14T00:04:17.335Z,3.30
2019-01-14T00:07:20.996Z,4.40
2019-01-14T00:10:24.664Z,3.73
2019-01-14T00:13:28.293Z,3.47
2019-01-14T00:16:31.983Z,3.00
2019-01-14T00:19:35.639Z,3.93
2019-01-14T00:22:39.413Z,5.27
2019-01-14T00:25:43.102Z,3.90
2019-01-14T00:28:46.799Z,3.90
2019-01-14T00:31:50.545Z,5.27
2019-01-14T00:34:54.203Z,4.13
2019-01-14T00:37:57.838Z,5.73
2019-01-14T00:41:01.478Z,3.23
2019-01-14T00:44:05.157Z,3.27
2019-01-14T00:47:08.838Z,3.40
2019-01-14T00:50:14.343Z,4.23
2019-01-14T00:53:18.020Z,4.47
2019-01-14T00:56:21.695Z,6.20
2019-01-14T00:59:25.365Z,4.00
2019-01-14T01:02:29.013Z,5.90
2019-01-14T01:05:32.674Z,5.87
2019-01-14T01:08:36.368Z,6.43
2019-01-14T01:11:40.034Z,6.37
2019-01-14T01:14:43.718Z,5.37
2019-01-14T01:17:47.396Z,4.20
2019-01-14T01:20:51.576Z,3.83
2019-01-14T01:23:55.214Z,4.67
2019-01-14T01:26:58.876Z,6.17
2019-01-14T01:30:02.643Z,4.50
2019-01-14T01:33:06.298Z,4.67
2019-01-14T01:36:09.979Z,4.17
2019-01-14T01:39:13.658Z,4.93
2019-01-14T01:42:17.328Z,4.83
2019-01-14T01:45:20.995Z,4.13
2019-01-14T01:48:24.722Z,6.67
2019-01-14T01:51:28.400Z,4.67
2019-01-14T01:54:32.051Z,4.93
2019-01-14T01:57:35.738Z,4.87
2019-01-14T02:00:39.437Z,4.77
2019-01-14T02:03:43.108Z,4.37
2019-01-14T02:06:47.821Z,7.10
2019-01-14T02:09:51.518Z,4.17
2019-01-14T02:12:55.159Z,4.93
2019-01-14T02:15:58.838Z,4.50
2019-01-14T02:19:02.465Z,4.43
2019-01-14T02:22:06.125Z,4.70
2019-01-14T02:25:10.489Z,6.70
2019-01-14T02:28:14.138Z,4.87
2019-01-14T02:31:17.826Z,3.83
2019-01-14T02:34:21.494Z,5.67
2019-01-14T02:37:25.164Z,5.33
2019-01-14T02:40:28.804Z,6.43
2019-01-14T02:43:32.478Z,8.23
2019-01-14T02:46:36.166Z,5.30
2019-01-14T02:49:39.823Z,6.10
2019-01-14T02:52:43.503Z,4.37
2019-01-14T02:55:47.164Z,7.10
2019-01-14T02:58:50.817Z,6.13
2019-01-14T03:01:54.475Z,5.40
2019-01-14T03:04:58.157Z,6.33
2019-01-14T03:08:01.907Z,7.27
2019-01-14T03:11:05.583Z,4.23
2019-01-14T03:14:09.268Z,4.47
2019-01-14T03:17:12.884Z,5.57
2019-01-14T03:20:17.183Z,5.47
2019-01-14T03:23:20.819Z,5.63
2019-01-14T03:26:24.492Z,6.30
2019-01-14T03:29:28.150Z,4.40
2019-01-14T03:32:31.869Z,4.27
2019-01-14T03:35:35.505Z,6.87
2019-01-14T03:38:39.186Z,6.37
2019-01-14T03:41:42.824Z,6.90
2019-01-14T03:44:46.464Z,6.40
2019-01-14T03:47:50.158Z,6.87
2019-01-14T03:50:53.795Z,8.63
2019-01-14T03:53:57.479Z,9.63
2019-01-14T03:57:01.186Z,9.10
2019-01-14T04:00:08.788Z,10.03
2019-01-14T04:03:12.459Z,7.43
2019-01-14T04:06:16.090Z,7.47
2019-01-14T04:09:19.783Z,8.43
2019-01-14T04:12:23.427Z,8.83
2019-01-14T04:15:27.087Z,6.57
2019-01-14T04:18:30.745Z,8.27
2019-01-14T04:21:34.432Z,8.30
2019-01-14T04:24:38.113Z,6.47
2019-01-14T04:27:41.730Z,9.23
2019-01-14T04:30:45.424Z,6.67
2019-01-14T04:33:49.091Z,6.90
2019-01-14T04:36:52.765Z,10.67
2019-01-14T04:39:56.453Z,8.77
2019-01-14T04:43:00.137Z,10.37
2019-01-14T04:46:03.812Z,14.20
2019-01-14T04:49:07.470Z,13.53
2019-01-14T04:52:11.193Z,13.17
2019-01-14T04:55:14.831Z,13.27
2019-01-14T04:58:18.498Z,10.70
2019-01-14T05:01:22.167Z,9.50
2019-01-14T05:04:25.821Z,9.87
2019-01-14T05:07:29.937Z,11.37
2019-01-14T05:10:33.647Z,9.60
2019-01-14T05:13:37.336Z,8.80
2019-01-14T05:16:40.980Z,11.67
2019-01-14T05:19:44.671Z,12.57
2019-01-14T05:22:48.352Z,12.70
2019-01-14T05:25:51.997Z,10.67
2019-01-14T05:28:55.695Z,16.33
2019-01-14T05:31:59.320Z,13.73
2019-01-14T05:35:03.000Z,14.40
2019-01-14T05:38:06.648Z,17.23
2019-01-14T05:41:10.367Z,18.13
2019-01-14T05:44:14.051Z,19.13
2019-01-14T05:47:17.713Z,18.97
2019-01-14T05:50:21.363Z,15.80
2019-01-14T05:53:25.110Z,14.67
2019-01-14T05:56:28.812Z,20.20
2019-01-14T05:59:32.511Z,22.80
2019-01-14T06:02:36.150Z,19.80
2019-01-14T06:05:39.843Z,15.27
2019-01-14T06:08:43.474Z,15.33
2019-01-14T06:11:47.167Z,14.63
2019-01-14T06:14:50.853Z,11.87
2019-01-14T06:17:54.598Z,13.47
2019-01-14T06:20:58.278Z,17.57
2019-01-14T06:24:01.942Z,14.37
2019-01-14T06:27:05.643Z,17.77
2019-01-14T06:30:18.130Z,22.97
2019-01-14T06:33:22.023Z,19.33
2019-01-14T06:36:25.659Z,20.20
2019-01-14T06:39:29.334Z,15.20
2019-01-14T06:42:32.994Z,14.33
2019-01-14T06:45:36.684Z,16.70
2019-01-14T06:48:40.383Z,17.90
2019-01-14T06:51:44.062Z,18.40
2019-01-14T06:54:47.759Z,18.00
2019-01-14T06:57:51.436Z,21.77
2019-01-14T07:00:55.114Z,17.47
2019-01-14T07:03:58.750Z,21.60
2019-01-14T07:07:02.534Z,20.33
2019-01-14T07:10:12.183Z,23.13
2019-01-14T07:13:15.822Z,24.33
2019-01-14T07:16:19.504Z,20.50
2019-01-14T07:19:23.188Z,28.80
2019-01-14T07:22:26.859Z,33.40
2019-01-14T07:25:30.509Z,28.30
2019-01-14T07:28:34.203Z,22.23
2019-01-14T07:31:37.852Z,27.67
2019-01-14T07:34:41.539Z,24.00
2019-01-14T07:37:45.222Z,26.80
2019-01-14T07:40:48.882Z,25.93
2019-01-14T07:43:52.557Z,19.33
2019-01-14T07:46:56.243Z,31.03
2019-01-14T07:49:59.905Z,24.03
2019-01-14T07:53:03.598Z,32.17
2019-01-14T07:56:07.392Z,37.03
2019-01-14T07:59:11.678Z,37.63
2019-01-14T08:02:15.323Z,34.30
2019-01-14T08:05:19.092Z,39.23
2019-01-14T08:08:22.735Z,37.77
2019-01-14T08:11:26.428Z,32.40
2019-01-14T08:14:30.104Z,27.53
2019-01-14T08:17:33.838Z,25.87
2019-01-14T08:20:37.539Z,24.20
2019-01-14T08:23:41.208Z,20.23
2019-01-14T08:26:45.360Z,27.57
2019-01-14T08:29:49.005Z,16.13
2019-01-14T08:32:52.708Z,13.50
2019-01-14T08:35:56.458Z,14.03
2019-01-14T08:39:00.103Z,13.47
2019-01-14T08:42:03.978Z,13.90
2019-01-14T08:45:09.135Z,13.57
2019-01-14T08:48:12.851Z,14.03
2019-01-14T08:51:16.486Z,14.50
2019-01-14T08:54:20.179Z,14.00
2019-01-14T08:57:23.852Z,11.23
2019-01-14T09:00:27.560Z,14.47
2019-01-14T09:03:31.240Z,12.07
2019-01-14T09:06:34.885Z,13.50
2019-01-14T09:09:38.554Z,18.23
2019-01-14T09:12:42.209Z,14.83
2019-01-14T09:15:47.372Z,13.17
2019-01-14T09:18:51.268Z,18.77
2019-01-14T09:21:54.969Z,18.27
2019-01-14T09:24:58.658Z,19.00
2019-01-14T09:28:02.336Z,14.90
2019-01-14T09:31:06.019Z,15.33
2019-01-14T09:34:10.180Z,16.20
2019-01-14T09:37:13.901Z,17.13
2019-01-14T09:40:21.978Z,15.83
2019-01-14T09:43:25.672Z,20.73
2019-01-14T09:46:29.440Z,17.57
2019-01-14T09:49:33.117Z,15.93
2019-01-14T09:52:36.778Z,15.07
2019-01-14T09:55:40.419Z,18.30
2019-01-14T09:58:44.116Z,16.17
2019-01-14T10:01:47.803Z,18.07
2019-01-14T10:04:51.459Z,15.30
2019-01-14T10:07:55.175Z,11.17
2019-01-14T10:10:58.804Z,17.10
2019-01-14T10:14:02.478Z,12.13
2019-01-14T10:17:06.261Z,14.10
2019-01-14T10:20:12.681Z,18.27
2019-01-14T10:23:16.318Z,15.40
2019-01-14T10:26:20.039Z,12.30
2019-01-14T10:29:23.726Z,20.50
2019-01-14T10:32:27.347Z,25.50
2019-01-14T10:35:31.057Z,16.17
2019-01-14T10:38:34.688Z,16.03
2019-01-14T10:41:38.372Z,17.87
2019-01-14T10:44:42.072Z,13.73
2019-01-14T10:47:45.708Z,18.20
2019-01-14T10:50:49.406Z,22.43
2019-01-14T10:53:54.122Z,20.73
2019-01-14T10:56:57.808Z,12.87
2019-01-14T11:00:01.470Z,10.33
2019-01-14T11:03:05.663Z,10.97
2019-01-14T11:06:09.396Z,15.50
2019-01-14T11:09:13.086Z,13.67
2019-01-14T11:12:16.749Z,14.40
2019-01-14T11:15:21.725Z,11.50
2019-01-14T11:18:25.388Z,10.83
2019-01-14T11:21:29.050Z,15.53
2019-01-14T11:24:34.312Z,8.90
2019-01-14T11:27:37.952Z,7.83
2019-01-14T11:30:41.612Z,8.63
2019-01-14T11:33:45.312Z,13.67
2019-01-14T11:36:48.986Z,10.00
2019-01-14T11:39:52.617Z,12.47
2019-01-14T11:42:56.273Z,16.80
2019-01-14T11:45:59.935Z,9.70
2019-01-14T11:49:03.572Z,13.40
2019-01-14T11:52:07.367Z,16.80
2019-01-14T11:55:11.060Z,9.80
2019-01-14T11:58:14.736Z,13.90
2019-01-14T12:01:18.404Z,17.83
2019-01-14T12:04:22.051Z,13.47
2019-01-14T12:07:25.723Z,11.83
2019-01-14T12:10:29.331Z,14.43
2019-01-14T12:13:33.003Z,11.93
2019-01-14T12:16:39.212Z,10.20
2019-01-14T12:19:42.881Z,10.63
2019-01-14T12:22:46.558Z,12.80
2019-01-14T12:25:50.199Z,10.90
2019-01-14T12:28:53.885Z,7.67
2019-01-14T12:31:57.544Z,8.97
2019-01-14T12:35:01.189Z,13.13
2019-01-14T12:38:04.903Z,10.40
2019-01-14T12:41:08.534Z,12.30
2019-01-14T12:44:12.234Z,11.83
2019-01-14T12:47:15.913Z,14.13
2019-01-14T12:50:21.698Z,13.67
2019-01-14T12:53:50.348Z,15.10
2019-01-14T12:56:53.999Z,17.90
2019-01-14T12:59:57.675Z,18.77
2019-01-14T13:03:01.328Z,12.20
2019-01-14T13:06:05.003Z,13.60
2019-01-14T13:09:10.623Z,16.43
2019-01-14T13:12:14.298Z,18.97
2019-01-14T13:15:25.778Z,14.83
2019-01-14T13:18:29.453Z,17.93
2019-01-14T13:21:33.133Z,22.17
2019-01-14T13:24:36.760Z,21.60
2019-01-14T13:27:41.025Z,18.73
2019-01-14T13:30:44.869Z,19.83
2019-01-14T13:33:48.585Z,19.53
2019-01-14T13:36:52.324Z,21.80
2019-01-14T13:39:56.318Z,18.30
2019-01-14T13:43:00.017Z,23.87
2019-01-14T13:46:04.124Z,18.63
2019-01-14T13:49:07.758Z,16.43
2019-01-14T13:52:11.428Z,15.97
2019-01-14T13:55:15.222Z,17.40
2019-01-14T13:58:18.895Z,16.87
2019-01-14T14:01:22.548Z,19.43
2019-01-14T14:04:26.242Z,23.60
2019-01-14T14:07:29.884Z,16.40
2019-01-14T14:10:33.574Z,17.83
2019-01-14T14:13:37.259Z,23.23
2019-01-14T14:16:40.875Z,13.87
2019-01-14T14:19:44.543Z,14.87
2019-01-14T14:22:48.303Z,14.83
2019-01-14T14:25:52.015Z,16.77
2019-01-14T14:28:55.679Z,19.03
2019-01-14T14:31:59.375Z,22.20
2019-01-14T14:35:03.053Z,16.97
2019-01-14T14:38:06.707Z,11.10
2019-01-14T14:41:10.368Z,17.97
2019-01-14T14:44:14.082Z,11.67
2019-01-14T14:47:17.724Z,14.53
2019-01-14T14:50:21.923Z,13.17
2019-01-14T14:53:25.656Z,15.87
2019-01-14T14:56:29.309Z,11.70
2019-01-14T14:59:32.970Z,17.07
2019-01-14T15:02:36.701Z,16.77
2019-01-14T15:05:40.430Z,15.87
2019-01-14T15:08:44.054Z,20.73
2019-01-14T15:11:47.763Z,15.13
2019-01-14T15:14:52.780Z,14.40
2019-01-14T15:17:57.056Z,17.17
2019-01-14T15:21:00.745Z,17.53
2019-01-14T15:24:04.393Z,14.70
2019-01-14T15:27:08.188Z,16.07
2019-01-14T15:30:14.948Z,13.00
2019-01-14T15:33:19.606Z,17.43
2019-01-14T15:36:23.928Z,13.70
2019-01-14T15:39:28.140Z,14.33
2019-01-14T15:42:31.959Z,11.97
2019-01-14T15:45:35.588Z,16.73
2019-01-14T15:48:39.257Z,12.03
2019-01-14T15:51:43.217Z,20.43
2019-01-14T15:54:47.004Z,18.13
2019-01-14T15:57:51.556Z,20.90
2019-01-14T16:00:55.366Z,12.87
2019-01-14T16:03:59.063Z,14.57
2019-01-14T16:07:02.776Z,14.40
2019-01-14T16:10:10.701Z,15.97
2019-01-14T16:13:16.024Z,14.70
2019-01-14T16:16:19.720Z,9.00
2019-01-14T16:19:23.419Z,9.83
2019-01-14T16:22:27.080Z,16.57
2019-01-14T16:25:30.791Z,12.63
2019-01-14T16:28:34.477Z,11.97
2019-01-14T16:31:38.163Z,11.63
2019-01-14T16:34:41.851Z,13.33
2019-01-14T16:37:45.522Z,17.50
2019-01-14T16:40:49.183Z,15.87
2019-01-14T16:43:52.858Z,19.23
2019-01-14T16:46:56.513Z,26.97
2019-01-14T16:50:00.228Z,28.93
2019-01-14T16:53:03.842Z,37.83
2019-01-14T16:56:07.531Z,28.00
2019-01-14T16:59:11.933Z,34.57
2019-01-14T17:02:15.588Z,40.43
2019-01-14T17:05:19.270Z,25.00
2019-01-14T17:08:22.933Z,49.67
2019-01-14T17:11:26.658Z,58.13
2019-01-14T17:14:30.350Z,52.57
2019-01-14T17:17:33.978Z,34.47
2019-01-14T17:20:37.658Z,61.43
2019-01-14T17:23:41.308Z,33.17
2019-01-14T17:26:45.000Z,17.83
2019-01-14T17:29:48.695Z,22.13
2019-01-14T17:32:53.550Z,28.63
2019-01-14T17:35:57.329Z,35.97
2019-01-14T17:39:01.027Z,47.13
2019-01-14T17:42:04.837Z,15.93
2019-01-14T17:45:09.863Z,16.40
2019-01-14T17:48:14.372Z,28.83
2019-01-14T17:51:18.085Z,18.00
2019-01-14T17:54:21.817Z,24.53
2019-01-14T17:57:25.454Z,19.17
2019-01-14T18:00:29.140Z,19.53
2019-01-14T18:03:32.838Z,9.67
2019-01-14T18:06:36.497Z,15.83
2019-01-14T18:09:41.777Z,21.43
2019-01-14T18:12:45.401Z,26.30
2019-01-14T18:15:49.076Z,19.53
2019-01-14T18:18:52.799Z,28.87
2019-01-14T18:21:56.472Z,29.53
2019-01-14T18:25:00.181Z,27.60
2019-01-14T18:28:03.819Z,29.53
2019-01-14T18:31:07.514Z,18.60
2019-01-14T18:34:11.185Z,24.40
2019-01-14T18:37:14.883Z,25.63
2019-01-14T18:40:19.079Z,20.23
2019-01-14T18:43:23.049Z,21.50
2019-01-14T18:46:26.787Z,27.87
2019-01-14T18:49:30.470Z,28.83
2019-01-14T18:52:34.209Z,33.50
2019-01-14T18:55:39.109Z,29.70
2019-01-14T18:58:42.771Z,30.33
2019-01-14T19:01:46.538Z,38.67
2019-01-14T19:04:50.208Z,36.20
2019-01-14T19:07:53.966Z,37.27
2019-01-14T19:10:58.406Z,42.63
2019-01-14T19:14:02.178Z,25.57
2019-01-14T19:17:05.904Z,26.23
2019-01-14T19:20:18.148Z,26.57
2019-01-14T19:23:21.882Z,29.37
2019-01-14T19:26:26.560Z,28.50
2019-01-14T19:29:30.628Z,30.67
2019-01-14T19:32:47.113Z,21.47
2019-01-14T19:39:22.202Z,23.10
2019-01-14T19:42:27.398Z,19.77
2019-01-14T19:45:31.039Z,29.37
2019-01-14T19:48:34.707Z,30.00
2019-01-14T19:51:38.519Z,19.00
2019-01-14T19:54:42.212Z,22.10
2019-01-14T19:57:45.968Z,21.47
2019-01-14T20:00:49.655Z,23.00
2019-01-14T20:03:53.398Z,25.37
2019-01-14T20:06:57.089Z,23.23
2019-01-14T20:10:00.727Z,22.30
2019-01-14T20:13:04.483Z,23.97
2019-01-14T20:16:08.280Z,24.67
2019-01-14T20:19:13.679Z,20.80
2019-01-14T20:22:17.419Z,29.50
2019-01-14T20:25:21.197Z,24.63
2019-01-14T20:28:25.073Z,21.47
2019-01-14T20:31:28.819Z,22.47
2019-01-14T20:34:32.540Z,24.27
2019-01-14T20:37:36.251Z,20.87
2019-01-14T20:40:39.982Z,19.13
2019-01-14T20:43:45.149Z,29.50
2019-01-14T20:46:48.878Z,20.17
2019-01-14T20:49:52.648Z,21.87
2019-01-14T20:52:56.413Z,19.60
2019-01-14T20:56:00.122Z,21.23
2019-01-14T20:59:03.828Z,24.93
2019-01-14T21:02:07.489Z,22.70
2019-01-14T21:05:11.363Z,28.93
2019-01-14T21:08:15.144Z,26.67
2019-01-14T21:11:23.888Z,32.90
2019-01-14T21:14:24.116Z,36.53
2019-01-14T21:17:27.835Z,41.87
2019-01-14T21:20:31.536Z,27.93
2019-01-14T21:23:35.305Z,31.33
2019-01-14T21:26:38.960Z,30.57
2019-01-14T21:29:42.660Z,40.33
2019-01-14T21:32:46.335Z,39.60
2019-01-14T21:35:50.040Z,43.40
2019-01-14T21:38:53.755Z,51.83
2019-01-14T21:41:57.396Z,49.03
2019-01-14T21:45:01.083Z,40.47
2019-01-14T21:48:04.747Z,32.03
2019-01-14T21:51:08.434Z,41.90
2019-01-14T21:54:12.124Z,34.20
2019-01-14T21:57:15.780Z,44.27
2019-01-14T22:00:21.885Z,31.30
2019-01-14T22:03:25.577Z,38.07
2019-01-14T22:06:29.256Z,27.00
2019-01-14T22:09:32.912Z,33.07
2019-01-14T22:12:36.587Z,31.00
2019-01-14T22:15:40.287Z,30.33
2019-01-14T22:18:44.009Z,40.23
2019-01-14T22:21:47.698Z,32.73
2019-01-14T22:24:51.401Z,37.90
2019-01-14T22:27:55.072Z,20.80
2019-01-14T22:30:58.723Z,44.10
2019-01-14T22:34:02.394Z,29.73
2019-01-14T22:37:06.059Z,31.97
2019-01-14T22:40:12.311Z,38.90
2019-01-14T22:43:15.977Z,38.70
2019-01-14T22:46:19.654Z,36.83
2019-01-14T22:49:23.312Z,38.70
2019-01-14T22:52:27.069Z,30.23
2019-01-14T22:55:30.677Z,38.47
2019-01-14T22:58:34.423Z,40.93
2019-01-14T23:01:38.176Z,37.77
2019-01-14T23:04:41.959Z,43.80
2019-01-14T23:07:45.586Z,45.30
2019-01-14T23:10:50.752Z,44.63
2019-01-14T23:13:54.665Z,40.50
2019-01-14T23:16:58.324Z,37.70
2019-01-14T23:20:02.040Z,39.47
2019-01-14T23:23:05.668Z,34.83
2019-01-14T23:26:09.344Z,33.73
2019-01-14T23:29:13.004Z,46.27
2019-01-14T23:32:16.713Z,38.97
2019-01-14T23:35:20.378Z,32.77
2019-01-14T23:38:24.060Z,28.03
2019-01-14T23:41:27.745Z,36.23
2019-01-14T23:44:31.370Z,23.07
2019-01-14T23:47:35.084Z,28.93
2019-01-14T23:50:38.767Z,33.63
2019-01-14T23:53:42.425Z,34.37
2019-01-14T23:56:46.132Z,37.97
2019-01-14T23:59:49.799Z,30.23
